createdAt,value
2022-11-21T00:00:10.610Z,26.45
2022-11-21T00:01:10.616Z,26.57
2022-11-21T00:02:10.668Z,26.48
2022-11-21T00:03:10.617Z,26.55
2022-11-21T00:04:10.608Z,26.60
2022-11-21T00:05:10.614Z,26.52
2022-11-21T00:06:10.608Z,26.54
2022-11-21T00:07:10.649Z,26.57
2022-11-21T00:08:10.608Z,26.58
2022-11-21T00:09:10.613Z,26.60
2022-11-21T00:10:10.606Z,26.55
2022-11-21T00:11:10.615Z,26.58
2022-11-21T00:12:10.604Z,26.57
2022-11-21T00:13:10.605Z,26.55
2022-11-21T00:14:10.615Z,26.54
2022-11-21T00:15:10.604Z,26.58
2022-11-21T00:16:10.611Z,26.54
2022-11-21T00:17:10.603Z,26.62
2022-11-21T00:18:10.611Z,26.54
2022-11-21T00:19:10.603Z,26.55
2022-11-21T00:20:10.610Z,26.57
2022-11-21T00:21:10.603Z,26.55
2022-11-21T00:22:10.609Z,26.54
2022-11-21T00:23:10.603Z,26.52
2022-11-21T00:24:10.608Z,26.52
2022-11-21T00:25:10.602Z,26.58
2022-11-21T00:26:10.608Z,26.58
2022-11-21T00:27:10.600Z,26.57
2022-11-21T00:28:10.607Z,26.52
2022-11-21T00:29:10.600Z,26.50
2022-11-21T00:30:10.608Z,26.55
2022-11-21T00:31:10.615Z,26.57
2022-11-21T00:32:10.605Z,26.51
2022-11-21T00:33:10.597Z,26.50
2022-11-21T00:34:10.604Z,26.55
2022-11-21T00:35:10.596Z,26.57
2022-11-21T00:36:10.606Z,26.55
2022-11-21T00:37:10.597Z,26.50
2022-11-21T00:38:10.603Z,26.47
2022-11-21T00:39:10.595Z,26.52
2022-11-21T00:40:10.603Z,26.52
2022-11-21T00:41:10.598Z,26.54
2022-11-21T00:42:10.602Z,26.54
2022-11-21T00:43:10.593Z,26.50
2022-11-21T00:44:10.601Z,26.58
2022-11-21T00:45:10.594Z,26.51
2022-11-21T00:46:10.603Z,26.52
2022-11-21T00:47:10.592Z,26.54
2022-11-21T00:48:10.601Z,26.52
2022-11-21T00:49:10.592Z,26.50
2022-11-21T00:50:10.599Z,26.51
2022-11-21T00:51:10.592Z,26.52
2022-11-21T00:52:10.598Z,26.51
2022-11-21T00:53:10.591Z,26.57
2022-11-21T00:54:10.597Z,26.51
2022-11-21T00:55:10.589Z,26.52
2022-11-21T00:56:10.597Z,26.48
2022-11-21T00:57:10.589Z,26.51
2022-11-21T00:58:10.595Z,26.48
2022-11-21T00:59:10.588Z,26.48
2022-11-21T01:00:10.598Z,26.50
2022-11-21T01:01:10.689Z,26.57
2022-11-21T01:02:10.595Z,26.54
2022-11-21T01:03:10.586Z,26.55
2022-11-21T01:04:10.593Z,26.47
2022-11-21T01:05:10.585Z,26.54
2022-11-21T01:06:10.595Z,26.52
2022-11-21T01:07:10.625Z,26.51
2022-11-21T01:08:10.592Z,26.47
2022-11-21T01:09:10.591Z,26.48
2022-11-21T01:10:10.592Z,26.51
2022-11-21T01:11:10.584Z,26.47
2022-11-21T01:12:10.592Z,26.50
2022-11-21T01:13:10.603Z,26.58
2022-11-21T01:14:10.743Z,26.60
2022-11-21T01:15:10.582Z,26.54
2022-11-21T01:16:10.591Z,26.48
2022-11-21T01:17:10.583Z,26.54
2022-11-21T01:18:10.590Z,26.54
2022-11-21T01:19:10.581Z,26.52
2022-11-21T01:20:10.588Z,26.58
2022-11-21T01:21:10.583Z,26.54
2022-11-21T01:22:10.589Z,26.51
2022-11-21T01:23:10.580Z,26.50
2022-11-21T01:24:10.586Z,26.52
2022-11-21T01:25:10.580Z,26.58
2022-11-21T01:26:10.589Z,26.57
2022-11-21T01:27:10.579Z,26.60
2022-11-21T01:28:10.589Z,26.55
2022-11-21T01:29:10.603Z,26.57
2022-11-21T01:30:10.587Z,26.50
2022-11-21T01:31:10.576Z,26.55
2022-11-21T01:32:10.585Z,26.52
2022-11-21T01:33:10.578Z,26.55
2022-11-21T01:34:10.584Z,26.52
2022-11-21T01:35:10.576Z,26.58
2022-11-21T01:36:10.583Z,26.50
2022-11-21T01:37:10.576Z,26.55
2022-11-21T01:38:10.585Z,26.55
2022-11-21T01:39:10.575Z,26.50
2022-11-21T01:40:10.584Z,26.51
2022-11-21T01:41:10.573Z,26.55
2022-11-21T01:42:10.582Z,26.54
2022-11-21T01:43:10.573Z,26.58
2022-11-21T01:44:10.583Z,26.54
2022-11-21T01:45:10.595Z,26.52
2022-11-21T01:46:10.580Z,26.51
2022-11-21T01:47:10.571Z,26.55
2022-11-21T01:48:10.578Z,26.52
2022-11-21T01:49:10.571Z,26.54
2022-11-21T01:50:13.061Z,26.54
2022-11-21T01:51:10.571Z,26.50
2022-11-21T01:52:10.577Z,26.52
2022-11-21T01:53:10.570Z,26.45
2022-11-21T01:54:10.578Z,26.52
2022-11-21T01:55:10.569Z,26.50
2022-11-21T01:56:10.575Z,26.55
2022-11-21T01:57:10.568Z,26.48
2022-11-21T01:58:10.577Z,26.50
2022-11-21T01:59:10.568Z,26.54
2022-11-21T02:00:10.575Z,26.54
2022-11-21T02:01:10.708Z,26.52
2022-11-21T02:02:10.578Z,26.44
2022-11-21T02:03:10.566Z,26.52
2022-11-21T02:04:10.574Z,26.57
2022-11-21T02:05:10.567Z,26.50
2022-11-21T02:06:10.573Z,26.51
2022-11-21T02:07:10.604Z,26.51
2022-11-21T02:08:10.572Z,26.52
2022-11-21T02:09:10.563Z,26.55
2022-11-21T02:10:10.571Z,26.52
2022-11-21T02:11:10.563Z,26.52
2022-11-21T02:12:10.570Z,26.54
2022-11-21T02:13:10.563Z,26.54
2022-11-21T02:14:10.571Z,26.50
2022-11-21T02:15:10.562Z,26.51
2022-11-21T02:16:10.568Z,26.55
2022-11-21T02:17:10.585Z,26.54
2022-11-21T02:18:10.568Z,26.50
2022-11-21T02:19:10.562Z,26.57
2022-11-21T02:20:10.571Z,26.52
2022-11-21T02:21:10.560Z,26.60
2022-11-21T02:22:10.568Z,26.51
2022-11-21T02:23:10.558Z,26.52
2022-11-21T02:24:10.571Z,26.48
2022-11-21T02:25:10.559Z,26.57
2022-11-21T02:26:10.567Z,26.52
2022-11-21T02:27:10.559Z,26.52
2022-11-21T02:28:10.565Z,26.51
2022-11-21T02:29:10.557Z,26.52
2022-11-21T02:30:10.566Z,26.52
2022-11-21T02:31:10.557Z,26.44
2022-11-21T02:32:10.563Z,26.51
2022-11-21T02:33:10.580Z,26.54
2022-11-21T02:34:10.564Z,26.48
2022-11-21T02:35:10.555Z,26.54
2022-11-21T02:36:10.563Z,26.50
2022-11-21T02:37:10.556Z,26.58
2022-11-21T02:38:10.562Z,26.47
2022-11-21T02:39:10.553Z,26.50
2022-11-21T02:40:10.563Z,26.50
2022-11-21T02:41:10.554Z,26.52
2022-11-21T02:42:10.561Z,26.50
2022-11-21T02:43:10.553Z,26.51
2022-11-21T02:44:10.559Z,26.51
2022-11-21T02:45:10.554Z,26.52
2022-11-21T02:46:10.559Z,26.48
2022-11-21T02:47:10.551Z,26.52
2022-11-21T02:48:10.560Z,26.57
2022-11-21T02:49:10.578Z,26.55
2022-11-21T02:50:10.561Z,26.51
2022-11-21T02:51:10.549Z,26.48
2022-11-21T02:52:10.556Z,26.48
2022-11-21T02:53:10.552Z,26.55
2022-11-21T02:54:10.557Z,26.54
2022-11-21T02:55:10.547Z,26.60
2022-11-21T02:56:10.555Z,26.50
2022-11-21T02:57:10.552Z,26.54
2022-11-21T02:58:10.555Z,26.51
2022-11-21T02:59:10.546Z,26.51
2022-11-21T03:00:10.555Z,26.54
2022-11-21T03:01:10.644Z,26.55
2022-11-21T03:02:10.553Z,26.54
2022-11-21T03:03:10.545Z,26.55
2022-11-21T03:04:10.552Z,26.52
2022-11-21T03:05:10.571Z,26.51
2022-11-21T03:06:10.553Z,26.54
2022-11-21T03:07:10.605Z,26.50
2022-11-21T03:08:10.556Z,26.52
2022-11-21T03:09:10.543Z,26.54
2022-11-21T03:10:10.552Z,26.54
2022-11-21T03:11:10.542Z,26.51
2022-11-21T03:12:10.550Z,26.60
2022-11-21T03:13:10.543Z,26.54
2022-11-21T03:14:10.549Z,26.48
2022-11-21T03:15:10.540Z,26.57
2022-11-21T03:16:10.548Z,26.54
2022-11-21T03:17:10.540Z,26.50
2022-11-21T03:18:10.550Z,26.58
2022-11-21T03:19:10.539Z,26.58
2022-11-21T03:20:10.547Z,26.51
2022-11-21T03:21:10.561Z,26.50
2022-11-21T03:22:10.553Z,26.50
2022-11-21T03:23:10.540Z,26.51
2022-11-21T03:24:10.546Z,26.48
2022-11-21T03:25:10.538Z,26.48
2022-11-21T03:26:10.544Z,26.54
2022-11-21T03:27:10.538Z,26.47
2022-11-21T03:28:10.543Z,26.55
2022-11-21T03:29:10.538Z,26.47
2022-11-21T03:30:10.545Z,26.51
2022-11-21T03:31:10.535Z,26.48
2022-11-21T03:32:10.547Z,26.54
2022-11-21T03:33:10.534Z,26.51
2022-11-21T03:34:10.544Z,26.50
2022-11-21T03:35:10.537Z,26.50
2022-11-21T03:36:10.541Z,26.51
2022-11-21T03:37:10.555Z,26.51
2022-11-21T03:38:10.551Z,26.54
2022-11-21T03:39:10.533Z,26.51
2022-11-21T03:40:10.540Z,26.54
2022-11-21T03:41:10.532Z,26.54
2022-11-21T03:42:10.539Z,26.45
2022-11-21T03:43:10.531Z,26.51
2022-11-21T03:44:10.539Z,26.48
2022-11-21T03:45:10.533Z,26.51
2022-11-21T03:46:10.539Z,26.50
2022-11-21T03:47:10.529Z,26.55
2022-11-21T03:48:10.538Z,26.52
2022-11-21T03:49:10.530Z,26.50
2022-11-21T03:50:10.540Z,26.51
2022-11-21T03:51:10.530Z,26.51
2022-11-21T03:52:10.535Z,26.55
2022-11-21T03:53:10.575Z,26.52
2022-11-21T03:54:10.535Z,26.55
2022-11-21T03:55:10.531Z,26.58
2022-11-21T03:56:10.536Z,26.55
2022-11-21T03:57:10.527Z,26.58
2022-11-21T03:58:10.533Z,26.57
2022-11-21T03:59:10.526Z,26.51
2022-11-21T04:00:10.532Z,26.54
2022-11-21T04:01:10.582Z,26.55
2022-11-21T04:02:10.532Z,26.50
2022-11-21T04:03:10.525Z,26.48
2022-11-21T04:04:10.532Z,26.58
2022-11-21T04:05:10.524Z,26.52
2022-11-21T04:06:10.532Z,26.51
2022-11-21T04:07:10.586Z,26.54
2022-11-21T04:08:10.529Z,26.54
2022-11-21T04:09:10.546Z,26.45
2022-11-21T04:10:10.530Z,26.50
2022-11-21T04:11:10.534Z,26.55
2022-11-21T04:12:10.529Z,26.51
2022-11-21T04:13:10.521Z,26.47
2022-11-21T04:14:10.528Z,26.52
2022-11-21T04:15:13.729Z,26.50
2022-11-21T04:16:10.530Z,26.50
2022-11-21T04:17:10.520Z,26.48
2022-11-21T04:18:10.527Z,26.52
2022-11-21T04:19:10.518Z,26.52
2022-11-21T04:20:10.531Z,26.51
2022-11-21T04:21:10.522Z,26.51
2022-11-21T04:22:10.525Z,26.55
2022-11-21T04:23:10.518Z,26.48
2022-11-21T04:24:10.529Z,26.54
2022-11-21T04:25:10.543Z,26.47
2022-11-21T04:26:10.524Z,26.54
2022-11-21T04:27:10.518Z,26.52
2022-11-21T04:28:10.523Z,26.58
2022-11-21T04:29:10.523Z,26.54
2022-11-21T04:30:10.517Z,26.55
2022-11-21T04:31:11.462Z,26.52
2022-11-21T04:32:10.514Z,26.48
2022-11-21T04:33:10.521Z,26.48
2022-11-21T04:34:10.521Z,26.57
2022-11-21T04:35:10.525Z,26.50
2022-11-21T04:36:10.513Z,26.47
2022-11-21T04:37:11.879Z,26.51
2022-11-21T04:38:10.513Z,26.58
2022-11-21T04:39:10.518Z,26.48
2022-11-21T04:40:10.512Z,26.51
2022-11-21T04:41:10.540Z,26.60
2022-11-21T04:42:10.513Z,26.40
2022-11-21T04:43:10.518Z,26.54
2022-11-21T04:44:10.512Z,26.51
2022-11-21T04:45:10.517Z,26.58
2022-11-21T04:46:10.509Z,26.60
2022-11-21T04:47:10.517Z,26.51
2022-11-21T04:48:10.510Z,26.51
2022-11-21T04:49:10.517Z,26.48
2022-11-21T04:50:10.510Z,26.50
2022-11-21T04:51:10.518Z,26.50
2022-11-21T04:52:10.508Z,26.54
2022-11-21T04:53:10.516Z,26.57
2022-11-21T04:54:10.509Z,26.54
2022-11-21T04:55:10.515Z,26.57
2022-11-21T04:56:10.507Z,26.51
2022-11-21T04:57:10.537Z,26.55
2022-11-21T04:58:10.507Z,26.55
2022-11-21T04:59:10.514Z,26.55
2022-11-21T05:00:10.511Z,26.54
2022-11-21T05:01:10.569Z,26.57
2022-11-21T05:02:10.523Z,26.58
2022-11-21T05:03:10.511Z,26.57
2022-11-21T05:04:10.503Z,26.51
2022-11-21T05:05:10.512Z,26.54
2022-11-21T05:06:10.503Z,26.62
2022-11-21T05:07:10.581Z,26.55
2022-11-21T05:08:10.502Z,26.52
2022-11-21T05:09:10.511Z,26.51
2022-11-21T05:10:10.503Z,26.54
2022-11-21T05:11:10.511Z,26.60
2022-11-21T05:12:10.501Z,26.54
2022-11-21T05:13:10.532Z,26.48
2022-11-21T05:14:10.502Z,26.58
2022-11-21T05:15:10.513Z,26.50
2022-11-21T05:16:10.500Z,26.51
2022-11-21T05:17:10.508Z,26.50
2022-11-21T05:18:10.500Z,26.58
2022-11-21T05:19:10.506Z,26.55
2022-11-21T05:20:10.498Z,26.55
2022-11-21T05:21:10.506Z,26.51
2022-11-21T05:22:10.499Z,26.51
2022-11-21T05:23:10.506Z,26.55
2022-11-21T05:24:10.497Z,26.55
2022-11-21T05:25:10.504Z,26.55
2022-11-21T05:26:10.499Z,26.54
2022-11-21T05:27:10.519Z,26.55
2022-11-21T05:28:10.496Z,26.57
2022-11-21T05:29:10.526Z,26.52
2022-11-21T05:30:10.498Z,26.57
2022-11-21T05:31:10.505Z,26.52
2022-11-21T05:32:10.496Z,26.55
2022-11-21T05:33:10.506Z,26.54
2022-11-21T05:34:10.498Z,26.52
2022-11-21T05:35:10.502Z,26.48
2022-11-21T05:36:10.497Z,26.55
2022-11-21T05:37:10.504Z,26.57
2022-11-21T05:38:10.507Z,26.57
2022-11-21T05:39:10.502Z,26.52
2022-11-21T05:40:10.492Z,26.52
2022-11-21T05:41:10.503Z,26.63
2022-11-21T05:42:10.495Z,26.58
2022-11-21T05:43:10.501Z,26.52
2022-11-21T05:44:10.491Z,26.57
2022-11-21T05:45:10.523Z,26.52
2022-11-21T05:46:10.497Z,26.54
2022-11-21T05:47:10.496Z,26.54
2022-11-21T05:48:10.493Z,26.67
2022-11-21T05:49:10.497Z,26.57
2022-11-21T05:50:10.489Z,26.57
2022-11-21T05:51:10.498Z,26.58
2022-11-21T05:52:10.496Z,26.58
2022-11-21T05:53:10.495Z,26.65
2022-11-21T05:54:10.488Z,26.55
2022-11-21T05:55:10.515Z,26.54
2022-11-21T05:56:10.486Z,26.52
2022-11-21T05:57:10.495Z,26.52
2022-11-21T05:58:10.488Z,26.65
2022-11-21T05:59:10.496Z,26.58
2022-11-21T06:00:10.506Z,26.55
2022-11-21T06:01:10.516Z,26.66
2022-11-21T06:02:10.486Z,26.62
2022-11-21T06:03:10.534Z,26.72
2022-11-21T06:04:10.484Z,26.72
2022-11-21T06:05:10.493Z,26.69
2022-11-21T06:06:10.484Z,26.72
2022-11-21T06:07:10.567Z,26.70
2022-11-21T06:08:10.486Z,26.70
2022-11-21T06:09:10.493Z,26.66
2022-11-21T06:10:10.497Z,26.80
2022-11-21T06:11:10.491Z,26.72
2022-11-21T06:12:10.483Z,26.75
2022-11-21T06:13:10.492Z,26.69
2022-11-21T06:14:10.483Z,26.77
2022-11-21T06:15:10.489Z,26.76
2022-11-21T06:16:10.483Z,26.81
2022-11-21T06:17:10.511Z,26.80
2022-11-21T06:18:10.483Z,26.77
2022-11-21T06:19:10.490Z,26.85
2022-11-21T06:20:10.485Z,26.89
2022-11-21T06:21:10.489Z,26.92
2022-11-21T06:22:10.481Z,26.88
2022-11-21T06:23:10.489Z,26.92
2022-11-21T06:24:10.482Z,26.97
2022-11-21T06:25:10.489Z,26.95
2022-11-21T06:26:10.486Z,27.00
2022-11-21T06:27:10.488Z,26.87
2022-11-21T06:28:10.480Z,26.92
2022-11-21T06:29:10.488Z,26.95
2022-11-21T06:30:10.484Z,27.03
2022-11-21T06:31:10.488Z,27.09
2022-11-21T06:32:10.481Z,27.04
2022-11-21T06:33:10.510Z,27.04
2022-11-21T06:34:10.482Z,27.13
2022-11-21T06:35:10.489Z,27.10
2022-11-21T06:36:10.480Z,27.10
2022-11-21T06:37:10.488Z,27.18
2022-11-21T06:38:10.481Z,27.12
2022-11-21T06:39:10.487Z,27.18
2022-11-21T06:40:10.481Z,27.13
2022-11-21T06:41:10.488Z,27.14
2022-11-21T06:42:10.480Z,27.18
2022-11-21T06:43:10.488Z,27.25
2022-11-21T06:44:10.482Z,27.22
2022-11-21T06:45:10.489Z,27.17
2022-11-21T06:46:10.484Z,27.25
2022-11-21T06:47:10.490Z,27.17
2022-11-21T06:48:10.480Z,27.24
2022-11-21T06:49:10.513Z,27.21
2022-11-21T06:50:10.483Z,27.22
2022-11-21T06:51:10.490Z,27.21
2022-11-21T06:52:10.481Z,27.22
2022-11-21T06:53:10.488Z,27.21
2022-11-21T06:54:13.855Z,27.21
2022-11-21T06:55:10.489Z,27.27
2022-11-21T06:56:10.481Z,27.24
2022-11-21T06:57:10.490Z,27.19
2022-11-21T06:58:10.483Z,27.24
2022-11-21T06:59:10.488Z,27.22
2022-11-21T07:00:10.482Z,27.21
2022-11-21T07:01:10.559Z,27.19
2022-11-21T07:02:10.483Z,27.21
2022-11-21T07:03:10.489Z,27.17
2022-11-21T07:04:10.481Z,27.13
2022-11-21T07:05:10.514Z,27.14
2022-11-21T07:06:10.483Z,27.13
2022-11-21T07:07:10.520Z,27.14
2022-11-21T07:08:13.347Z,27.13
2022-11-21T07:09:32.387Z,27.10
2022-11-21T07:10:10.482Z,27.10
2022-11-21T07:11:24.580Z,27.12
2022-11-21T07:12:10.484Z,27.13
2022-11-21T07:13:10.490Z,27.14
2022-11-21T07:14:10.636Z,27.13
2022-11-21T07:15:10.490Z,27.13
2022-11-21T07:16:10.483Z,27.10
2022-11-21T07:17:10.491Z,27.14
2022-11-21T07:18:10.486Z,27.13
2022-11-21T07:19:10.490Z,27.12
2022-11-21T07:20:10.485Z,27.09
2022-11-21T07:21:10.520Z,27.10
2022-11-21T07:22:10.484Z,27.10
2022-11-21T07:23:10.490Z,27.21
2022-11-21T07:24:10.485Z,27.14
2022-11-21T07:25:10.491Z,27.18
2022-11-21T07:26:10.487Z,27.10
2022-11-21T07:27:10.491Z,27.13
2022-11-21T07:28:10.483Z,27.17
2022-11-21T07:29:10.491Z,27.17
2022-11-21T07:30:10.484Z,27.14
2022-11-21T07:31:13.842Z,27.14
2022-11-21T07:32:10.484Z,27.13
2022-11-21T07:33:10.492Z,27.10
2022-11-21T07:34:10.484Z,27.13
2022-11-21T07:35:10.493Z,27.14
2022-11-21T07:36:10.486Z,27.13
2022-11-21T07:37:10.520Z,27.14
2022-11-21T07:38:10.490Z,27.13
2022-11-21T07:39:10.491Z,27.18
2022-11-21T07:40:10.488Z,27.14
2022-11-21T07:41:10.505Z,27.13
2022-11-21T07:42:10.485Z,27.17
2022-11-21T07:43:11.075Z,27.22
2022-11-21T07:44:10.483Z,27.14
2022-11-21T07:45:10.491Z,27.25
2022-11-21T07:46:10.488Z,27.14
2022-11-21T07:47:10.494Z,27.27
2022-11-21T07:48:10.485Z,27.24
2022-11-21T07:49:10.492Z,27.19
2022-11-21T07:50:10.484Z,27.21
2022-11-21T07:51:10.493Z,27.21
2022-11-21T07:52:10.485Z,27.22
2022-11-21T07:53:10.514Z,27.25
2022-11-21T07:54:10.490Z,27.22
2022-11-21T07:55:10.492Z,27.22
2022-11-21T07:56:10.485Z,27.19
2022-11-21T07:57:10.493Z,27.24
2022-11-21T07:58:10.487Z,27.22
2022-11-21T07:59:10.492Z,27.27
2022-11-21T08:00:10.485Z,27.21
2022-11-21T08:01:10.496Z,27.25
2022-11-21T08:02:10.512Z,27.24
2022-11-21T08:03:10.494Z,27.29
2022-11-21T08:04:10.486Z,27.22
2022-11-21T08:05:10.492Z,27.29
2022-11-21T08:06:10.487Z,27.32
2022-11-21T08:07:10.530Z,27.34
2022-11-21T08:08:10.489Z,27.32
2022-11-21T08:09:10.516Z,27.31
2022-11-21T08:10:10.487Z,27.34
2022-11-21T08:11:10.493Z,27.40
2022-11-21T08:12:10.487Z,27.39
2022-11-21T08:13:10.496Z,27.31
2022-11-21T08:14:10.487Z,27.40
2022-11-21T08:15:10.494Z,27.44
2022-11-21T08:16:10.488Z,27.40
2022-11-21T08:17:10.495Z,27.43
2022-11-21T08:18:10.489Z,27.37
2022-11-21T08:19:10.494Z,27.39
2022-11-21T08:20:10.489Z,27.36
2022-11-21T08:21:10.497Z,27.44
2022-11-21T08:22:10.490Z,27.39
2022-11-21T08:23:10.495Z,27.43
2022-11-21T08:24:10.490Z,27.46
2022-11-21T08:25:10.538Z,27.41
2022-11-21T08:26:10.489Z,27.44
2022-11-21T08:27:10.497Z,27.43
2022-11-21T08:28:10.492Z,27.46
2022-11-21T08:29:10.502Z,27.34
2022-11-21T08:30:10.494Z,27.41
2022-11-21T08:31:10.498Z,27.39
2022-11-21T08:32:10.490Z,27.46
2022-11-21T08:33:10.505Z,27.50
2022-11-21T08:34:14.359Z,27.40
2022-11-21T08:35:10.500Z,27.47
2022-11-21T08:36:10.494Z,27.50
2022-11-21T08:37:10.499Z,27.49
2022-11-21T08:38:10.494Z,27.49
2022-11-21T08:39:10.500Z,27.57
2022-11-21T08:40:10.494Z,27.51
2022-11-21T08:41:16.127Z,27.50
2022-11-21T08:42:10.494Z,27.49
2022-11-21T08:43:10.503Z,27.50
2022-11-21T08:44:14.047Z,27.51
2022-11-21T08:45:10.498Z,27.49
2022-11-21T08:46:10.503Z,27.57
2022-11-21T08:47:10.494Z,27.55
2022-11-21T08:48:10.503Z,27.47
2022-11-21T08:49:10.496Z,27.54
2022-11-21T08:50:10.506Z,27.49
2022-11-21T08:51:10.497Z,27.51
2022-11-21T08:52:10.503Z,27.50
2022-11-21T08:53:10.499Z,27.55
2022-11-21T08:54:10.509Z,27.55
2022-11-21T08:55:10.505Z,27.46
2022-11-21T08:56:10.506Z,27.51
2022-11-21T08:57:10.520Z,27.50
2022-11-21T08:58:10.506Z,27.40
2022-11-21T08:59:10.500Z,27.44
2022-11-21T09:00:10.506Z,27.47
2022-11-21T09:01:10.520Z,27.49
2022-11-21T09:02:10.571Z,27.41
2022-11-21T09:03:10.499Z,27.54
2022-11-21T09:04:10.507Z,27.43
2022-11-21T09:05:10.502Z,27.44
2022-11-21T09:06:10.509Z,27.39
2022-11-21T09:07:10.542Z,27.40
2022-11-21T09:08:10.508Z,27.40
2022-11-21T09:09:10.501Z,27.32
2022-11-21T09:10:10.510Z,27.34
2022-11-21T09:11:10.502Z,27.40
2022-11-21T09:12:10.509Z,27.32
2022-11-21T09:13:10.526Z,27.39
2022-11-21T09:14:10.510Z,27.28
2022-11-21T09:15:10.504Z,27.34
2022-11-21T09:16:10.510Z,27.31
2022-11-21T09:17:10.502Z,27.31
2022-11-21T09:18:10.510Z,27.31
2022-11-21T09:19:10.515Z,27.21
2022-11-21T09:20:10.589Z,27.27
2022-11-21T09:21:10.503Z,27.27
2022-11-21T09:22:10.510Z,27.29
2022-11-21T09:23:10.518Z,27.27
2022-11-21T09:24:10.510Z,27.22
2022-11-21T09:25:10.504Z,27.31
2022-11-21T09:26:10.511Z,27.28
2022-11-21T09:27:10.503Z,27.29
2022-11-21T09:28:10.510Z,27.22
2022-11-21T09:29:10.525Z,27.21
2022-11-21T09:30:10.514Z,27.19
2022-11-21T09:31:10.503Z,27.22
2022-11-21T09:32:10.511Z,27.14
2022-11-21T09:33:10.505Z,27.24
2022-11-21T09:34:10.563Z,27.17
2022-11-21T09:35:10.503Z,27.13
2022-11-21T09:36:10.513Z,27.17
2022-11-21T09:37:10.505Z,27.21
2022-11-21T09:38:10.512Z,27.14
2022-11-21T09:39:10.504Z,27.12
2022-11-21T09:40:10.513Z,27.06
2022-11-21T09:41:10.516Z,27.12
2022-11-21T09:42:10.512Z,27.10
2022-11-21T09:43:10.503Z,27.17
2022-11-21T09:44:10.512Z,27.10
2022-11-21T09:45:10.527Z,27.12
2022-11-21T09:46:10.513Z,27.07
2022-11-21T09:47:10.504Z,27.09
2022-11-21T09:48:10.512Z,27.13
2022-11-21T09:49:10.504Z,27.12
2022-11-21T09:50:10.519Z,27.06
2022-11-21T09:51:10.506Z,27.10
2022-11-21T09:52:10.513Z,27.09
2022-11-21T09:53:10.504Z,27.12
2022-11-21T09:54:10.512Z,27.03
2022-11-21T09:55:10.504Z,27.10
2022-11-21T09:56:10.514Z,27.02
2022-11-21T09:57:10.505Z,27.03
2022-11-21T09:58:10.511Z,27.00
2022-11-21T09:59:10.554Z,26.99
2022-11-21T10:00:10.510Z,27.06
2022-11-21T10:01:10.670Z,26.95
2022-11-21T10:02:10.512Z,26.94
2022-11-21T10:03:10.503Z,26.95
2022-11-21T10:04:10.510Z,27.04
2022-11-21T10:05:10.505Z,26.95
2022-11-21T10:06:10.511Z,26.95
2022-11-21T10:07:10.613Z,26.97
2022-11-21T10:08:10.514Z,26.99
2022-11-21T10:09:10.504Z,27.03
2022-11-21T10:10:10.513Z,26.92
2022-11-21T10:11:19.104Z,26.89
2022-11-21T10:12:10.510Z,26.94
2022-11-21T10:13:10.504Z,26.94
2022-11-21T10:14:10.511Z,26.95
2022-11-21T10:15:10.506Z,26.99
2022-11-21T10:16:10.515Z,26.95
2022-11-21T10:17:10.527Z,26.94
2022-11-21T10:18:10.512Z,26.91
2022-11-21T10:19:10.503Z,26.99
2022-11-21T10:20:10.510Z,26.95
2022-11-21T10:21:10.503Z,26.92
2022-11-21T10:22:10.510Z,26.99
2022-11-21T10:23:10.503Z,26.89
2022-11-21T10:24:10.511Z,27.02
2022-11-21T10:25:10.502Z,26.97
2022-11-21T10:26:10.512Z,27.03
2022-11-21T10:27:10.503Z,27.09
2022-11-21T10:28:10.519Z,27.04
2022-11-21T10:29:10.503Z,27.02
2022-11-21T10:30:10.510Z,27.09
2022-11-21T10:31:10.501Z,27.02
2022-11-21T10:32:10.509Z,27.00
2022-11-21T10:33:10.527Z,26.97
2022-11-21T10:34:10.510Z,26.95
2022-11-21T10:35:10.501Z,27.03
2022-11-21T10:36:10.509Z,26.92
2022-11-21T10:37:11.868Z,26.99
2022-11-21T10:38:10.509Z,27.00
2022-11-21T10:39:10.500Z,26.95
2022-11-21T10:40:10.508Z,26.94
2022-11-21T10:41:10.501Z,27.00
2022-11-21T10:42:10.509Z,26.94
2022-11-21T10:43:10.500Z,26.95
2022-11-21T10:44:10.512Z,27.04
2022-11-21T10:45:10.501Z,26.99
2022-11-21T10:46:10.508Z,27.03
2022-11-21T10:47:10.502Z,26.99
2022-11-21T10:48:10.510Z,27.06
2022-11-21T10:49:10.522Z,26.95
2022-11-21T10:50:10.510Z,27.00
2022-11-21T10:51:10.500Z,26.95
2022-11-21T10:52:10.511Z,27.09
2022-11-21T10:53:10.503Z,27.09
2022-11-21T10:54:10.509Z,27.10
2022-11-21T10:55:10.505Z,27.07
2022-11-21T10:56:10.513Z,27.09
2022-11-21T10:57:10.502Z,27.07
2022-11-21T10:58:10.509Z,27.10
2022-11-21T10:59:10.500Z,27.09
2022-11-21T11:00:10.508Z,27.21
2022-11-21T11:01:10.584Z,27.12
2022-11-21T11:02:10.508Z,27.13
2022-11-21T11:03:10.501Z,27.18
2022-11-21T11:05:10.522Z,27.17
2022-11-21T11:06:10.509Z,27.19
2022-11-21T11:07:10.532Z,27.19
2022-11-21T11:08:10.509Z,27.14
2022-11-21T11:09:10.501Z,27.24
2022-11-21T11:10:10.511Z,27.22
2022-11-21T11:11:10.500Z,27.22
2022-11-21T11:12:10.508Z,27.25
2022-11-21T11:13:30.851Z,27.18
2022-11-21T11:14:10.508Z,27.21
2022-11-21T11:15:10.501Z,27.24
2022-11-21T11:16:10.508Z,27.27
2022-11-21T11:17:10.500Z,27.21
2022-11-21T11:18:10.509Z,27.25
2022-11-21T11:19:10.500Z,27.24
2022-11-21T11:20:10.509Z,27.24
2022-11-21T11:21:10.524Z,27.24
2022-11-21T11:22:10.518Z,27.25
2022-11-21T11:23:10.504Z,27.25
2022-11-21T11:24:10.507Z,27.21
2022-11-21T11:25:10.502Z,27.29
2022-11-21T11:26:10.510Z,27.28
2022-11-21T11:27:10.501Z,27.22
2022-11-21T11:28:10.508Z,27.29
2022-11-21T11:29:10.504Z,27.19
2022-11-21T11:30:10.509Z,27.21
2022-11-21T11:31:10.581Z,27.21
2022-11-21T11:32:10.508Z,27.28
2022-11-21T11:33:10.502Z,27.29
2022-11-21T11:34:10.510Z,27.19
2022-11-21T11:35:10.502Z,27.28
2022-11-21T11:36:10.510Z,27.29
2022-11-21T11:37:10.529Z,27.28
2022-11-21T11:38:10.512Z,27.27
2022-11-21T11:39:10.503Z,27.34
2022-11-21T11:40:10.510Z,27.34
2022-11-21T11:41:10.502Z,27.36
2022-11-21T11:42:16.364Z,27.32
2022-11-21T11:43:10.503Z,27.34
2022-11-21T11:44:10.509Z,27.36
2022-11-21T11:45:10.509Z,27.32
2022-11-21T11:46:10.511Z,27.32
2022-11-21T11:47:10.503Z,27.32
2022-11-21T11:48:10.513Z,27.41
2022-11-21T11:49:20.300Z,27.40
2022-11-21T11:50:10.511Z,27.40
2022-11-21T11:51:10.513Z,27.39
2022-11-21T11:52:10.511Z,27.40
2022-11-21T11:53:10.532Z,27.40
2022-11-21T11:54:10.513Z,27.39
2022-11-21T11:55:10.505Z,27.47
2022-11-21T11:56:10.512Z,27.51
2022-11-21T11:57:10.505Z,27.51
2022-11-21T11:58:10.513Z,27.47
2022-11-21T11:59:10.509Z,27.54
2022-11-21T12:00:10.514Z,27.54
2022-11-21T12:01:10.507Z,27.55
2022-11-21T12:02:12.166Z,27.57
2022-11-21T12:03:10.507Z,27.55
2022-11-21T12:04:10.515Z,27.59
2022-11-21T12:05:10.507Z,27.72
2022-11-21T12:06:10.516Z,27.65
2022-11-21T12:09:10.639Z,27.69
2022-11-21T12:10:10.516Z,27.66
2022-11-21T12:11:10.509Z,27.69
2022-11-21T12:12:10.520Z,27.75
2022-11-21T12:13:10.509Z,27.70
2022-11-21T12:14:10.518Z,27.70
2022-11-21T12:15:10.509Z,27.70
2022-11-21T12:16:13.616Z,27.74
2022-11-21T12:17:10.514Z,27.75
2022-11-21T12:18:10.526Z,27.70
2022-11-21T12:19:10.511Z,27.82
2022-11-21T12:20:10.520Z,27.77
2022-11-21T12:21:10.512Z,27.75
2022-11-21T12:22:10.523Z,27.79
2022-11-21T12:23:10.512Z,27.78
2022-11-21T12:24:10.523Z,27.82
2022-11-21T12:25:10.541Z,27.79
2022-11-21T12:26:10.546Z,27.82
2022-11-21T12:27:10.519Z,27.84
2022-11-21T12:28:10.523Z,27.70
2022-11-21T12:29:10.517Z,27.85
2022-11-21T12:30:10.525Z,27.79
2022-11-21T12:31:10.516Z,27.81
2022-11-21T12:32:10.523Z,27.74
2022-11-21T12:33:10.518Z,27.82
2022-11-21T12:34:10.525Z,27.79
2022-11-21T12:35:10.521Z,27.72
2022-11-21T12:36:17.958Z,27.82
2022-11-21T12:37:10.521Z,27.84
2022-11-21T12:38:10.527Z,27.79
2022-11-21T12:39:10.524Z,27.82
2022-11-21T12:40:10.528Z,27.74
2022-11-21T12:41:10.543Z,27.74
2022-11-21T12:42:10.528Z,27.77
2022-11-21T12:43:10.524Z,27.81
2022-11-21T12:44:10.529Z,27.78
2022-11-21T12:45:10.528Z,27.69
2022-11-21T12:46:10.530Z,27.75
2022-11-21T12:47:10.522Z,27.72
2022-11-21T12:48:10.532Z,27.75
2022-11-21T12:49:10.524Z,27.75
2022-11-21T12:50:10.533Z,27.81
2022-11-21T12:51:10.526Z,27.81
2022-11-21T12:52:10.557Z,27.77
2022-11-21T12:53:10.526Z,27.74
2022-11-21T12:54:10.533Z,27.74
2022-11-21T12:55:10.525Z,27.72